createdAt,value
2023-01-11T00:01:02.702Z,77.24
2023-01-11T00:04:05.390Z,77.58
2023-01-11T00:07:07.700Z,78.45
2023-01-11T00:10:10.920Z,77.55
2023-01-11T00:13:14.528Z,77.66
2023-01-11T00:16:17.570Z,77.44
2023-01-11T00:19:19.930Z,77.52
2023-01-11T00:22:22.541Z,77.91
2023-01-11T00:25:25.160Z,77.25
2023-01-11T00:28:27.781Z,77.29
2023-01-11T00:31:30.185Z,77.09
2023-01-11T00:34:32.841Z,77.04
2023-01-11T00:37:35.323Z,77.01
2023-01-11T00:40:39.489Z,76.86
2023-01-11T00:44:00.576Z,76.81
2023-01-11T00:47:22.187Z,76.56
2023-01-11T00:50:26.528Z,76.64
2023-01-11T00:53:29.194Z,76.88
2023-01-11T00:56:31.518Z,76.78
2023-01-11T00:59:39.552Z,76.76
2023-01-11T01:02:43.426Z,76.87
2023-01-11T01:05:46.104Z,76.92
2023-01-11T01:08:48.679Z,77.25
2023-01-11T01:11:51.276Z,77.26
2023-01-11T01:14:53.631Z,77.32
2023-01-11T01:17:56.947Z,77.31
2023-01-11T01:20:59.266Z,77.51
2023-01-11T01:24:01.909Z,77.44
2023-01-11T01:27:04.251Z,77.86
2023-01-11T01:30:07.923Z,77.43
2023-01-11T01:33:10.396Z,77.13
2023-01-11T01:36:13.123Z,77.16
2023-01-11T01:39:15.902Z,77.34
2023-01-11T01:42:20.182Z,76.93
2023-01-11T01:45:27.565Z,76.92
2023-01-11T01:48:30.641Z,76.97
2023-01-11T01:51:43.845Z,76.85
2023-01-11T01:54:49.458Z,76.97
2023-01-11T01:57:53.659Z,77.26
2023-01-11T02:00:56.327Z,77.19
2023-01-11T02:03:59.201Z,77.41
2023-01-11T02:07:08.099Z,77.24
2023-01-11T02:10:10.386Z,77.06
2023-01-11T02:13:14.483Z,77.04
2023-01-11T02:16:16.802Z,77.16
2023-01-11T02:19:54.722Z,77.11
2023-01-11T02:23:16.186Z,77.01
2023-01-11T02:26:56.255Z,77.20
2023-01-11T02:30:08.823Z,77.42
2023-01-11T02:33:46.707Z,77.16
2023-01-11T02:37:04.463Z,77.44
2023-01-11T02:40:07.432Z,77.76
2023-01-11T02:43:45.577Z,77.55
2023-01-11T02:46:55.141Z,77.94
2023-01-11T02:50:07.835Z,77.96
2023-01-11T02:53:23.520Z,78.57
2023-01-11T02:56:29.951Z,78.77
2023-01-11T02:59:35.560Z,79.11
2023-01-11T03:02:38.143Z,79.04
2023-01-11T03:06:06.960Z,78.74
2023-01-11T03:09:44.183Z,78.86
2023-01-11T03:12:55.819Z,78.69
2023-01-11T03:16:04.400Z,78.88
2023-01-11T03:19:06.988Z,79.23
2023-01-11T03:22:14.724Z,79.03
2023-01-11T03:25:40.618Z,78.88
2023-01-11T03:28:56.869Z,78.97
2023-01-11T03:32:14.717Z,79.43
2023-01-11T03:35:38.658Z,79.21
2023-01-11T03:38:53.717Z,78.83
2023-01-11T03:42:00.155Z,79.76
2023-01-11T03:45:04.491Z,79.42
2023-01-11T03:48:12.784Z,79.59
2023-01-11T03:51:21.705Z,79.36
2023-01-11T03:54:26.349Z,79.58
2023-01-11T03:57:43.801Z,79.59
2023-01-11T04:00:46.574Z,79.36
2023-01-11T04:03:49.128Z,79.49
2023-01-11T04:06:51.523Z,79.40
2023-01-11T04:09:54.297Z,79.61
2023-01-11T04:12:57.165Z,79.50
2023-01-11T04:16:00.072Z,79.36
2023-01-11T04:19:02.994Z,79.44
2023-01-11T04:22:05.706Z,79.41
2023-01-11T04:25:08.943Z,79.31
2023-01-11T04:28:11.557Z,79.45
2023-01-11T04:31:14.006Z,79.79
2023-01-11T04:34:16.668Z,79.11
2023-01-11T04:37:19.009Z,79.29
2023-01-11T04:40:22.263Z,79.43
2023-01-11T04:43:24.623Z,79.57
2023-01-11T04:46:27.344Z,79.90
2023-01-11T04:49:29.741Z,79.83
2023-01-11T04:52:32.375Z,79.71
2023-01-11T04:55:34.709Z,79.52
2023-01-11T04:58:38.284Z,79.34
2023-01-11T05:01:40.768Z,79.36
2023-01-11T05:04:43.871Z,79.78
2023-01-11T05:07:48.408Z,79.50
2023-01-11T05:10:55.515Z,79.26
2023-01-11T05:14:00.048Z,79.64
2023-01-11T05:17:02.716Z,79.83
2023-01-11T05:20:05.441Z,80.10
2023-01-11T05:23:08.053Z,80.03
2023-01-11T05:26:17.717Z,79.79
2023-01-11T05:29:21.318Z,79.96
2023-01-11T05:32:23.757Z,80.10
2023-01-11T05:35:26.441Z,80.23
2023-01-11T05:38:29.283Z,80.46
2023-01-11T05:41:32.356Z,80.56
2023-01-11T05:44:52.964Z,80.38
2023-01-11T05:47:55.640Z,80.42
2023-01-11T05:50:59.191Z,81.02
2023-01-11T05:54:05.630Z,81.35
2023-01-11T05:57:11.517Z,81.74
2023-01-11T06:00:14.784Z,81.57
2023-01-11T06:03:17.594Z,81.62
2023-01-11T06:06:21.578Z,82.00
2023-01-11T06:09:24.999Z,82.66
2023-01-11T06:12:27.401Z,82.65
2023-01-11T06:15:30.090Z,82.84
2023-01-11T06:18:34.926Z,82.49
2023-01-11T06:21:38.052Z,82.83
2023-01-11T06:24:40.531Z,82.55
2023-01-11T06:27:43.151Z,82.42
2023-01-11T06:30:51.952Z,82.16
2023-01-11T06:33:54.647Z,81.92
2023-01-11T06:36:56.978Z,81.87
2023-01-11T06:39:59.638Z,81.90
2023-01-11T06:43:02.635Z,81.70
2023-01-11T06:46:05.806Z,81.91
2023-01-11T06:49:08.200Z,81.68
2023-01-11T06:52:10.877Z,81.60
2023-01-11T06:55:13.299Z,81.57
2023-01-11T06:58:16.157Z,81.41
2023-01-11T07:01:18.838Z,81.11
2023-01-11T07:04:21.841Z,80.96
2023-01-11T07:07:24.185Z,81.15
2023-01-11T07:10:27.860Z,81.15
2023-01-11T07:13:30.196Z,80.74
2023-01-11T07:16:32.938Z,80.52
2023-01-11T07:19:35.334Z,80.33
2023-01-11T07:22:37.955Z,80.27
2023-01-11T07:25:41.238Z,80.07
2023-01-11T07:28:44.274Z,80.31
2023-01-11T07:31:47.498Z,80.35
2023-01-11T07:34:50.170Z,80.68
2023-01-11T07:37:52.745Z,80.17
2023-01-11T07:40:55.351Z,79.26
2023-01-11T07:43:57.741Z,79.19
2023-01-11T07:47:00.427Z,79.04
2023-01-11T07:50:02.884Z,78.63
2023-01-11T07:53:08.212Z,78.70
2023-01-11T07:56:10.554Z,79.28
2023-01-11T07:59:13.256Z,79.20
2023-01-11T08:02:15.636Z,79.08
2023-01-11T08:05:21.584Z,79.11
2023-01-11T08:08:23.868Z,78.51
2023-01-11T08:11:45.388Z,78.40
2023-01-11T08:14:47.768Z,79.05
2023-01-11T08:17:50.408Z,79.42
2023-01-11T08:20:53.379Z,79.51
2023-01-11T08:23:57.665Z,80.10
2023-01-11T08:27:00.322Z,80.48
2023-01-11T08:30:03.686Z,80.41
2023-01-11T08:33:06.162Z,80.50
2023-01-11T08:36:11.174Z,80.46
2023-01-11T08:39:13.511Z,80.48
2023-01-11T08:42:16.954Z,80.29
2023-01-11T08:45:19.354Z,80.14
2023-01-11T08:48:22.252Z,80.11
2023-01-11T08:51:24.624Z,79.95
2023-01-11T08:54:27.276Z,80.11
2023-01-11T08:57:29.683Z,80.21
2023-01-11T09:00:32.372Z,80.02
2023-01-11T09:03:34.747Z,79.86
2023-01-11T09:06:37.540Z,79.50
2023-01-11T09:09:39.900Z,79.21
2023-01-11T09:12:43.621Z,78.70
2023-01-11T09:15:46.798Z,77.00
2023-01-11T09:18:49.618Z,76.53
2023-01-11T09:21:52.292Z,76.22
2023-01-11T09:24:55.521Z,75.90
2023-01-11T09:27:57.944Z,75.19
2023-01-11T09:31:00.583Z,74.78
2023-01-11T09:34:04.845Z,74.99
2023-01-11T09:37:07.554Z,74.78
2023-01-11T09:40:23.555Z,74.47
2023-01-11T09:43:29.365Z,74.15
2023-01-11T09:46:32.520Z,73.14
2023-01-11T09:49:40.775Z,72.84
2023-01-11T09:52:47.487Z,72.48
2023-01-11T09:55:52.908Z,72.01
2023-01-11T09:59:24.822Z,71.30
2023-01-11T10:02:42.753Z,70.91
2023-01-11T10:06:08.643Z,70.77
2023-01-11T10:18:26.026Z,67.32
2023-01-11T10:20:24.458Z,67.37
2023-01-11T10:23:48.476Z,67.39
2023-01-11T10:27:02.235Z,66.35
2023-01-11T10:30:37.640Z,65.13
2023-01-11T10:33:47.889Z,64.52
2023-01-11T10:37:19.083Z,63.34
2023-01-11T10:41:01.912Z,63.62
2023-01-11T10:44:10.601Z,61.69
2023-01-11T10:47:20.458Z,62.63
2023-01-11T10:50:36.580Z,62.89
2023-01-11T10:54:14.667Z,63.36
2023-01-11T10:57:29.421Z,63.81
2023-01-11T11:00:45.084Z,64.01
2023-01-11T11:04:01.157Z,64.24
2023-01-11T11:07:12.184Z,64.07
2023-01-11T11:10:21.930Z,63.91
2023-01-11T11:14:01.584Z,64.00
2023-01-11T11:17:19.779Z,63.68
2023-01-11T11:20:31.149Z,64.08
2023-01-11T11:23:35.812Z,63.85
2023-01-11T11:26:43.256Z,63.41
2023-01-11T11:29:52.334Z,63.50
2023-01-11T11:33:00.647Z,63.40
2023-01-11T11:36:08.955Z,63.59
2023-01-11T11:39:11.661Z,63.48
2023-01-11T11:42:18.689Z,63.42
2023-01-11T11:45:21.407Z,63.48
2023-01-11T11:48:26.550Z,62.93
2023-01-11T11:51:29.437Z,62.92
2023-01-11T11:54:43.412Z,63.10
2023-01-11T11:57:47.783Z,62.74
2023-01-11T12:00:52.765Z,61.93
2023-01-11T12:03:59.805Z,61.23
2023-01-11T12:07:09.003Z,61.56
2023-01-11T12:10:31.292Z,61.66
2023-01-11T12:13:36.508Z,61.08
2023-01-11T12:16:41.362Z,60.88
2023-01-11T12:19:45.828Z,60.69
2023-01-11T12:23:24.578Z,60.85
2023-01-11T12:26:40.789Z,60.42
2023-01-11T12:29:52.037Z,60.06
2023-01-11T12:33:12.709Z,59.83
2023-01-11T12:36:31.149Z,59.20
2023-01-11T12:39:52.107Z,58.70
2023-01-11T12:43:13.324Z,58.95
2023-01-11T12:46:34.165Z,58.53
2023-01-11T12:49:56.150Z,58.73
2023-01-11T12:53:36.350Z,58.58
2023-01-11T12:57:13.910Z,58.39
2023-01-11T13:00:28.063Z,58.14
2023-01-11T13:03:43.993Z,57.84
2023-01-11T13:07:09.261Z,58.34
2023-01-11T13:10:29.881Z,58.23
2023-01-11T13:13:34.809Z,57.93
2023-01-11T13:17:18.998Z,57.26
2023-01-11T13:21:01.214Z,57.86
2023-01-11T13:24:33.843Z,57.75
2023-01-11T13:27:36.596Z,57.71
2023-01-11T13:30:40.745Z,57.80
2023-01-11T13:33:49.430Z,57.64
2023-01-11T13:36:58.575Z,57.10
2023-01-11T13:40:13.059Z,58.17
2023-01-11T13:43:20.137Z,58.33
2023-01-11T13:46:34.942Z,58.01
2023-01-11T13:50:17.742Z,58.07
2023-01-11T13:53:33.788Z,58.90
2023-01-11T13:56:51.261Z,59.43
2023-01-11T14:00:01.608Z,60.29
2023-01-11T14:03:35.637Z,60.79
2023-01-11T14:06:40.880Z,60.95
2023-01-11T14:10:11.367Z,61.19
2023-01-11T14:13:54.724Z,61.27
2023-01-11T14:17:15.897Z,61.74
2023-01-11T14:20:38.234Z,61.97
2023-01-11T14:23:46.829Z,62.18
2023-01-11T14:27:14.316Z,62.38
2023-01-11T14:30:16.740Z,62.95
2023-01-11T14:33:38.650Z,63.74
2023-01-11T14:36:44.269Z,63.67
2023-01-11T14:39:56.066Z,64.23
2023-01-11T14:43:10.631Z,64.60
2023-01-11T14:46:31.771Z,64.80
2023-01-11T14:50:07.540Z,65.24
2023-01-11T14:53:16.837Z,64.92
2023-01-11T14:56:37.612Z,65.42
2023-01-11T14:59:40.649Z,65.68
2023-01-11T15:02:43.108Z,65.72
2023-01-11T15:05:51.562Z,66.10
2023-01-11T15:08:55.194Z,66.27
2023-01-11T15:12:15.240Z,66.91
2023-01-11T15:15:21.081Z,66.72
2023-01-11T15:18:25.441Z,66.78
2023-01-11T15:21:27.995Z,66.63
2023-01-11T15:24:43.435Z,66.64
2023-01-11T15:27:46.407Z,66.48
2023-01-11T15:30:53.141Z,65.44
2023-01-11T15:34:00.919Z,66.30
2023-01-11T15:37:03.968Z,66.58
2023-01-11T15:40:29.346Z,66.38
2023-01-11T15:44:09.687Z,66.82
2023-01-11T15:47:30.199Z,67.08
2023-01-11T15:50:45.069Z,66.98
2023-01-11T15:54:15.541Z,66.80
2023-01-11T15:57:23.853Z,67.38
2023-01-11T16:00:59.287Z,67.35
2023-01-11T16:04:23.845Z,67.40
2023-01-11T16:08:01.879Z,67.22
2023-01-11T16:11:10.530Z,67.03
2023-01-11T16:14:24.752Z,66.98
2023-01-11T16:17:28.513Z,67.51
2023-01-11T16:20:31.021Z,67.58
2023-01-11T16:23:37.297Z,67.34
2023-01-11T16:26:41.463Z,67.23
2023-01-11T16:29:50.251Z,67.73
2023-01-11T16:32:53.146Z,67.82
2023-01-11T16:36:13.341Z,68.05
2023-01-11T16:39:23.271Z,68.40
2023-01-11T16:42:29.919Z,68.43
2023-01-11T16:45:44.257Z,68.60
2023-01-11T16:48:46.981Z,68.96
2023-01-11T16:51:49.548Z,68.90
2023-01-11T16:54:54.120Z,69.89
2023-01-11T16:58:00.296Z,70.08
2023-01-11T17:01:09.856Z,70.24
2023-01-11T17:04:32.223Z,70.67
2023-01-11T17:07:34.886Z,70.48
2023-01-11T17:10:37.427Z,70.66
2023-01-11T17:14:02.122Z,71.01
2023-01-11T17:17:07.784Z,71.65
2023-01-11T17:20:27.804Z,71.37
2023-01-11T17:23:31.271Z,70.62
2023-01-11T17:26:44.119Z,70.38
2023-01-11T17:29:47.785Z,70.98
2023-01-11T17:32:56.464Z,71.29
2023-01-11T17:36:00.064Z,70.93
2023-01-11T17:39:04.674Z,70.68
2023-01-11T17:42:29.441Z,71.22
2023-01-11T17:45:32.353Z,71.08
2023-01-11T17:48:35.297Z,71.24
2023-01-11T17:51:39.653Z,71.62
2023-01-11T17:54:42.195Z,71.82
2023-01-11T17:58:03.725Z,71.87
2023-01-11T18:01:09.054Z,71.82
2023-01-11T18:04:19.737Z,71.87
2023-01-11T18:07:22.185Z,71.71
2023-01-11T18:10:32.901Z,72.28
2023-01-11T18:13:35.366Z,72.82
2023-01-11T18:17:02.502Z,73.37
2023-01-11T18:20:10.744Z,73.84
2023-01-11T18:23:19.272Z,74.44
2023-01-11T18:26:27.041Z,74.59
2023-01-11T18:29:35.747Z,75.13
2023-01-11T18:32:42.738Z,75.09
2023-01-11T18:35:48.539Z,75.51
2023-01-11T18:38:51.364Z,75.46
2023-01-11T18:42:09.872Z,74.86
2023-01-11T18:45:13.225Z,74.98
2023-01-11T18:48:16.173Z,74.92
2023-01-11T18:51:41.874Z,74.51
2023-01-11T18:54:44.683Z,74.71
2023-01-11T18:57:47.491Z,75.01
2023-01-11T19:00:50.141Z,75.11
2023-01-11T19:03:52.600Z,75.25
2023-01-11T19:06:55.293Z,75.45
2023-01-11T19:09:59.431Z,75.18
2023-01-11T19:13:02.221Z,75.27
2023-01-11T19:16:04.967Z,74.99
2023-01-11T19:19:07.956Z,75.12
2023-01-11T19:22:11.857Z,75.29
2023-01-11T19:25:14.544Z,75.64
2023-01-11T19:28:17.122Z,75.36
2023-01-11T19:31:19.837Z,75.86
2023-01-11T19:34:23.058Z,76.34
2023-01-11T19:37:27.648Z,76.08
2023-01-11T19:40:30.056Z,76.08
2023-01-11T19:43:32.790Z,76.43
2023-01-11T19:46:35.221Z,76.71
2023-01-11T19:49:38.625Z,76.89
2023-01-11T19:52:41.108Z,76.75
2023-01-11T19:55:43.822Z,76.67
2023-01-11T19:58:46.183Z,76.97
2023-01-11T20:01:49.083Z,77.51
2023-01-11T20:04:51.799Z,77.70
2023-01-11T20:07:54.737Z,77.80
2023-01-11T20:10:57.448Z,78.53
2023-01-11T20:13:59.822Z,79.33
2023-01-11T20:17:03.064Z,79.40
2023-01-11T20:20:06.765Z,79.22
2023-01-11T20:23:09.336Z,79.59
2023-01-11T20:26:15.189Z,79.47
2023-01-11T20:29:18.002Z,78.87
2023-01-11T20:32:39.665Z,79.60
2023-01-11T20:35:43.375Z,79.87
2023-01-11T20:38:46.305Z,79.90
2023-01-11T20:41:49.966Z,80.22
2023-01-11T20:44:52.603Z,80.22
2023-01-11T20:47:55.243Z,80.33
2023-01-11T20:51:01.234Z,80.49
2023-01-11T20:54:07.787Z,80.92
2023-01-11T20:57:12.657Z,81.05
2023-01-11T21:00:15.942Z,81.29
2023-01-11T21:03:20.144Z,80.94
2023-01-11T21:06:22.812Z,81.17
2023-01-11T21:09:25.150Z,80.97
2023-01-11T21:12:27.779Z,80.82
2023-01-11T21:15:31.653Z,81.07
2023-01-11T21:18:34.693Z,81.16
2023-01-11T21:21:37.333Z,81.27
2023-01-11T21:24:41.212Z,81.34
2023-01-11T21:27:43.720Z,81.28
2023-01-11T21:30:46.400Z,81.42
2023-01-11T21:33:50.508Z,81.35
2023-01-11T21:36:53.265Z,81.59
2023-01-11T21:39:55.719Z,81.54
2023-01-11T21:42:59.343Z,82.24
2023-01-11T21:46:03.053Z,83.04
2023-01-11T21:49:06.073Z,83.03
2023-01-11T21:52:08.634Z,82.79
2023-01-11T21:55:14.061Z,82.87
2023-01-11T21:58:19.165Z,82.27
2023-01-11T22:01:24.267Z,82.29
2023-01-11T22:04:27.444Z,82.64
2023-01-11T22:07:31.658Z,82.99
2023-01-11T22:10:34.919Z,83.03
2023-01-11T22:13:37.389Z,82.68
2023-01-11T22:16:40.914Z,82.99
2023-01-11T22:19:43.356Z,82.80
2023-01-11T22:22:46.184Z,82.49
2023-01-11T22:25:48.480Z,82.59
2023-01-11T22:29:14.847Z,83.08
2023-01-11T22:32:17.960Z,83.42
2023-01-11T22:35:20.666Z,83.60
2023-01-11T22:38:23.059Z,83.63
2023-01-11T22:41:26.216Z,83.27
2023-01-11T22:44:28.567Z,83.36
2023-01-11T22:47:31.305Z,83.26
2023-01-11T22:50:33.724Z,83.24
2023-01-11T22:53:37.646Z,83.47
2023-01-11T22:56:41.310Z,83.28
2023-01-11T22:59:43.993Z,83.23
2023-01-11T23:02:46.493Z,82.87
2023-01-11T23:05:49.153Z,82.59
2023-01-11T23:08:52.633Z,82.61
2023-01-11T23:12:13.875Z,82.92
2023-01-11T23:15:16.266Z,83.24
2023-01-11T23:18:19.819Z,82.91
2023-01-11T23:21:22.336Z,82.55
2023-01-11T23:24:25.055Z,82.61
2023-01-11T23:27:27.474Z,82.57
2023-01-11T23:30:30.438Z,82.51
2023-01-11T23:33:32.779Z,82.64
2023-01-11T23:36:38.428Z,82.72
2023-01-11T23:39:40.769Z,82.83
2023-01-11T23:42:43.461Z,83.10
2023-01-11T23:45:45.934Z,82.94
2023-01-11T23:48:49.005Z,83.33
2023-01-11T23:51:51.443Z,83.26
2023-01-11T23:54:54.876Z,83.13
2023-01-11T23:58:12.047Z,83.29
